createdAt,value
2018-08-17T00:01:31.995Z,6.17
2018-08-17T00:04:00.564Z,6.23
2018-08-17T00:06:29.147Z,6.47
2018-08-17T00:08:57.839Z,7.27
2018-08-17T00:11:26.448Z,6.00
2018-08-17T00:13:55.055Z,6.90
2018-08-17T00:16:24.036Z,5.70
2018-08-17T00:18:52.592Z,5.17
2018-08-17T00:21:21.171Z,5.90
2018-08-17T00:23:49.794Z,5.33
2018-08-17T00:26:18.384Z,5.80
2018-08-17T00:28:46.944Z,5.30
2018-08-17T00:31:16.140Z,4.97
2018-08-17T00:33:45.186Z,4.93
2018-08-17T00:36:13.767Z,5.73
2018-08-17T00:38:42.474Z,5.03
2018-08-17T00:41:11.056Z,5.10
2018-08-17T00:43:39.620Z,6.00
2018-08-17T00:46:09.223Z,5.67
2018-08-17T00:48:37.780Z,5.23
2018-08-17T00:51:07.081Z,5.60
2018-08-17T00:53:35.687Z,5.83
2018-08-17T00:56:04.361Z,5.70
2018-08-17T00:58:33.001Z,5.13
2018-08-17T01:01:01.719Z,5.80
2018-08-17T01:03:30.726Z,6.40
2018-08-17T01:05:59.320Z,5.47
2018-08-17T01:08:28.055Z,5.30
2018-08-17T01:10:56.660Z,5.03
2018-08-17T01:13:25.255Z,5.53
2018-08-17T01:15:53.887Z,5.83
2018-08-17T01:18:22.460Z,6.60
2018-08-17T01:20:51.070Z,5.53
2018-08-17T01:23:19.801Z,6.20
2018-08-17T01:25:48.379Z,5.73
2018-08-17T01:28:17.082Z,5.53
2018-08-17T01:30:45.679Z,5.83
2018-08-17T01:33:14.250Z,4.93
2018-08-17T01:35:42.807Z,5.30
2018-08-17T01:38:11.420Z,5.20
2018-08-17T01:40:39.987Z,5.33
2018-08-17T01:43:08.592Z,5.60
2018-08-17T01:45:37.231Z,5.97
2018-08-17T01:48:05.919Z,5.40
2018-08-17T01:50:34.566Z,5.30
2018-08-17T01:53:03.247Z,6.23
2018-08-17T01:55:32.148Z,5.27
2018-08-17T01:58:00.700Z,5.87
2018-08-17T02:00:29.668Z,5.30
2018-08-17T02:02:58.243Z,5.30
2018-08-17T02:05:26.856Z,5.97
2018-08-17T02:07:55.472Z,5.13
2018-08-17T02:10:24.096Z,4.90
2018-08-17T02:12:52.699Z,6.13
2018-08-17T02:15:21.352Z,5.60
2018-08-17T02:17:49.963Z,5.43
2018-08-17T02:20:18.555Z,5.40
2018-08-17T02:22:47.155Z,6.10
2018-08-17T02:25:15.719Z,4.97
2018-08-17T02:27:44.299Z,6.93
2018-08-17T02:30:13.208Z,5.97
2018-08-17T02:32:41.789Z,6.50
2018-08-17T02:35:10.392Z,5.97
2018-08-17T02:37:38.982Z,5.17
2018-08-17T02:40:07.560Z,5.47
2018-08-17T02:42:36.119Z,5.40
2018-08-17T02:45:06.044Z,5.53
2018-08-17T02:47:34.627Z,4.77
2018-08-17T02:50:03.226Z,7.27
2018-08-17T02:52:31.986Z,5.70
2018-08-17T02:55:00.549Z,5.30
2018-08-17T02:57:29.123Z,5.33
2018-08-17T02:59:57.826Z,5.57
2018-08-17T03:02:26.492Z,5.40
2018-08-17T03:04:55.061Z,5.10
2018-08-17T03:07:23.745Z,5.57
2018-08-17T03:09:52.318Z,5.60
2018-08-17T03:12:20.888Z,5.47
2018-08-17T03:14:49.598Z,5.20
2018-08-17T03:17:18.174Z,5.33
2018-08-17T03:19:46.724Z,5.00
2018-08-17T03:22:15.339Z,5.97
2018-08-17T03:24:43.924Z,4.90
2018-08-17T03:27:12.484Z,5.10
2018-08-17T03:29:41.083Z,5.13
2018-08-17T03:32:09.631Z,5.53
2018-08-17T03:34:38.195Z,5.90
2018-08-17T03:37:07.159Z,5.80
2018-08-17T03:39:35.845Z,4.20
2018-08-17T03:42:04.544Z,6.03
2018-08-17T03:44:33.176Z,4.77
2018-08-17T03:47:01.776Z,5.70
2018-08-17T03:49:30.310Z,5.03
2018-08-17T03:51:59.291Z,4.60
2018-08-17T03:54:27.878Z,4.70
2018-08-17T03:56:56.455Z,5.20
2018-08-17T03:59:25.176Z,5.17
2018-08-17T04:01:53.731Z,5.10
2018-08-17T04:04:22.303Z,5.90
2018-08-17T04:06:50.867Z,5.90
2018-08-17T04:09:19.429Z,5.20
2018-08-17T04:11:48.014Z,5.10
2018-08-17T04:14:16.918Z,4.97
2018-08-17T04:16:45.511Z,5.20
2018-08-17T04:19:14.056Z,5.83
2018-08-17T04:21:42.656Z,5.57
2018-08-17T04:24:11.329Z,7.53
2018-08-17T04:26:39.859Z,6.10
2018-08-17T04:29:08.464Z,5.83
2018-08-17T04:31:37.028Z,5.83
2018-08-17T04:34:05.631Z,6.03
2018-08-17T04:36:34.243Z,6.00
2018-08-17T04:39:02.973Z,5.73
2018-08-17T04:41:31.556Z,6.57
2018-08-17T04:44:00.143Z,5.63
2018-08-17T04:46:28.708Z,5.43
2018-08-17T04:48:57.280Z,6.07
2018-08-17T04:51:25.888Z,5.40
2018-08-17T04:53:54.456Z,5.70
2018-08-17T04:56:23.046Z,6.07
2018-08-17T04:58:51.639Z,5.17
2018-08-17T05:01:20.208Z,5.60
2018-08-17T05:03:48.760Z,4.60
2018-08-17T05:06:17.396Z,5.30
2018-08-17T05:08:45.951Z,5.73
2018-08-17T05:11:14.511Z,5.23
2018-08-17T05:13:43.108Z,4.70
2018-08-17T05:16:11.695Z,5.17
2018-08-17T05:18:40.239Z,5.60
2018-08-17T05:21:08.919Z,5.50
2018-08-17T05:23:37.516Z,6.00
2018-08-17T05:26:06.228Z,5.00
2018-08-17T05:28:34.840Z,5.60
2018-08-17T05:31:03.429Z,6.73
2018-08-17T05:33:32.025Z,4.80
2018-08-17T05:36:00.924Z,4.97
2018-08-17T05:38:29.575Z,4.57
2018-08-17T05:40:58.188Z,4.80
2018-08-17T05:43:26.789Z,5.40
2018-08-17T05:45:55.359Z,4.70
2018-08-17T05:48:23.940Z,5.57
2018-08-17T05:50:52.643Z,5.37
2018-08-17T05:53:21.196Z,5.10
2018-08-17T05:55:49.809Z,3.83
2018-08-17T05:58:18.455Z,4.60
2018-08-17T06:00:47.107Z,4.60
2018-08-17T06:03:15.709Z,3.97
2018-08-17T06:05:44.304Z,4.43
2018-08-17T06:08:12.892Z,4.50
2018-08-17T06:10:41.464Z,3.77
2018-08-17T06:13:10.096Z,4.20
2018-08-17T06:15:38.715Z,3.87
2018-08-17T06:18:07.337Z,4.23
2018-08-17T06:20:35.927Z,4.40
2018-08-17T06:23:04.548Z,4.47
2018-08-17T06:25:33.131Z,4.20
2018-08-17T06:28:02.082Z,4.67
2018-08-17T06:30:30.665Z,3.60
2018-08-17T06:32:59.250Z,3.77
2018-08-17T06:35:27.981Z,3.97
2018-08-17T06:37:56.620Z,4.60
2018-08-17T06:40:25.196Z,4.90
2018-08-17T06:42:53.915Z,3.97
2018-08-17T06:45:22.499Z,4.23
2018-08-17T06:47:51.123Z,4.27
2018-08-17T06:50:19.758Z,3.93
2018-08-17T06:52:48.339Z,5.37
2018-08-17T06:55:16.908Z,4.10
2018-08-17T06:57:45.511Z,4.47
2018-08-17T07:00:16.024Z,4.10
2018-08-17T07:02:45.844Z,3.67
2018-08-17T07:05:14.759Z,3.83
2018-08-17T07:07:43.688Z,3.50
2018-08-17T07:10:13.671Z,4.47
2018-08-17T07:12:42.850Z,3.73
2018-08-17T07:15:11.583Z,3.47
2018-08-17T07:17:41.061Z,4.47
2018-08-17T07:20:11.557Z,3.87
2018-08-17T07:22:40.367Z,4.70
2018-08-17T07:25:09.578Z,4.30
2018-08-17T07:27:38.567Z,3.80
2018-08-17T07:30:08.659Z,4.27
2018-08-17T07:32:37.227Z,4.80
2018-08-17T07:35:07.459Z,3.90
2018-08-17T07:37:36.407Z,3.60
2018-08-17T07:40:05.052Z,4.77
2018-08-17T07:42:33.634Z,4.37
2018-08-17T07:45:02.299Z,3.73
2018-08-17T07:47:30.898Z,3.57
2018-08-17T07:49:59.476Z,4.17
2018-08-17T07:52:28.405Z,4.20
2018-08-17T07:54:56.976Z,3.87
2018-08-17T07:57:25.589Z,3.90
2018-08-17T07:59:54.272Z,4.50
2018-08-17T08:02:22.836Z,5.10
2018-08-17T08:04:51.429Z,4.23
2018-08-17T08:07:20.062Z,4.67
2018-08-17T08:09:48.636Z,4.80
2018-08-17T08:12:17.211Z,5.13
2018-08-17T08:14:45.812Z,3.70
2018-08-17T08:17:14.400Z,3.93
2018-08-17T08:19:42.964Z,4.33
2018-08-17T08:22:11.630Z,4.70
2018-08-17T08:24:40.309Z,3.13
2018-08-17T08:27:09.160Z,3.30
2018-08-17T08:29:37.767Z,4.77
2018-08-17T08:32:06.386Z,3.20
2018-08-17T08:34:34.952Z,3.20
2018-08-17T08:37:03.556Z,3.00
2018-08-17T08:39:32.132Z,3.13
2018-08-17T08:42:00.752Z,3.80
2018-08-17T08:44:29.428Z,3.33
2018-08-17T08:46:58.012Z,3.53
2018-08-17T08:49:26.596Z,3.17
2018-08-17T08:51:55.215Z,3.10
2018-08-17T08:54:23.801Z,3.83
2018-08-17T08:56:52.360Z,3.87
2018-08-17T08:59:21.311Z,3.63
2018-08-17T09:01:49.960Z,3.40
2018-08-17T09:04:18.592Z,4.20
2018-08-17T09:06:47.200Z,3.87
2018-08-17T09:09:15.757Z,3.73
2018-08-17T09:11:44.342Z,3.60
2018-08-17T09:14:13.034Z,3.67
2018-08-17T09:16:41.618Z,3.80
2018-08-17T09:19:10.183Z,3.67
2018-08-17T09:21:38.874Z,3.70
2018-08-17T09:24:07.517Z,3.53
2018-08-17T09:26:36.083Z,3.60
2018-08-17T09:29:05.232Z,3.63
2018-08-17T09:31:33.859Z,3.30
2018-08-17T09:34:02.412Z,4.50
2018-08-17T09:36:31.303Z,4.27
2018-08-17T09:38:59.872Z,4.03
2018-08-17T09:41:28.440Z,4.00
2018-08-17T09:43:57.367Z,4.37
2018-08-17T09:46:25.952Z,4.80
2018-08-17T09:48:54.783Z,4.80
2018-08-17T09:51:23.544Z,4.20
2018-08-17T09:53:52.063Z,4.77
2018-08-17T09:56:20.630Z,5.30
2018-08-17T09:58:49.479Z,4.37
2018-08-17T10:01:23.292Z,4.30
2018-08-17T10:03:57.543Z,3.93
2018-08-17T10:06:31.407Z,4.03
2018-08-17T10:10:07.484Z,4.47
2018-08-17T10:12:36.096Z,4.10
2018-08-17T10:15:04.831Z,4.30
2018-08-17T10:17:33.432Z,4.77
2018-08-17T10:20:02.016Z,4.00
2018-08-17T10:22:30.613Z,4.47
2018-08-17T10:25:06.283Z,4.03
2018-08-17T10:27:34.844Z,4.13
2018-08-17T10:30:03.419Z,4.33
2018-08-17T10:32:35.488Z,4.20
2018-08-17T10:35:04.997Z,3.93
2018-08-17T10:37:33.580Z,3.77
2018-08-17T10:40:02.473Z,4.63
2018-08-17T10:42:31.051Z,4.00
2018-08-17T10:44:59.612Z,4.40
2018-08-17T10:47:28.259Z,4.07
2018-08-17T10:49:58.955Z,4.23
2018-08-17T10:52:27.544Z,5.13
2018-08-17T10:54:56.152Z,4.03
2018-08-17T10:57:24.807Z,4.13
2018-08-17T10:59:53.427Z,4.13
2018-08-17T11:02:22.015Z,4.47
2018-08-17T11:04:50.635Z,4.30
2018-08-17T11:07:23.948Z,4.87
2018-08-17T11:09:52.864Z,4.50
2018-08-17T11:12:21.472Z,3.90
2018-08-17T11:14:50.324Z,4.73
2018-08-17T11:17:18.908Z,4.40
2018-08-17T11:19:47.491Z,4.30
2018-08-17T11:22:17.204Z,3.90
2018-08-17T11:24:45.828Z,4.20
2018-08-17T11:27:14.435Z,4.20
2018-08-17T11:29:43.060Z,4.00
2018-08-17T11:32:11.825Z,3.97
2018-08-17T11:34:40.535Z,3.70
2018-08-17T11:37:09.181Z,3.83
2018-08-17T11:39:41.550Z,4.20
2018-08-17T11:42:10.180Z,4.80
2018-08-17T11:44:38.741Z,3.97
2018-08-17T11:47:07.387Z,4.17
2018-08-17T11:49:36.144Z,4.37
2018-08-17T11:52:04.741Z,4.13
2018-08-17T11:54:33.319Z,4.20
2018-08-17T11:57:01.945Z,4.60
2018-08-17T11:59:30.556Z,4.27
2018-08-17T12:01:59.268Z,3.30
2018-08-17T12:04:27.977Z,4.20
2018-08-17T12:06:56.611Z,3.97
2018-08-17T12:09:25.212Z,4.67
2018-08-17T12:11:54.908Z,4.63
2018-08-17T12:14:23.600Z,4.60
2018-08-17T12:16:52.207Z,3.53
2018-08-17T12:19:20.824Z,3.40
2018-08-17T12:21:49.399Z,4.17
2018-08-17T12:24:18.088Z,3.80
2018-08-17T12:26:52.750Z,3.60
2018-08-17T12:29:21.328Z,4.13
2018-08-17T12:31:50.352Z,4.33
2018-08-17T12:34:19.293Z,3.87
2018-08-17T12:36:47.853Z,4.23
2018-08-17T12:39:16.436Z,3.57
2018-08-17T12:41:45.025Z,4.07
2018-08-17T12:44:13.628Z,3.77
2018-08-17T12:46:42.168Z,3.97
2018-08-17T12:49:10.759Z,3.90
2018-08-17T12:51:39.357Z,4.10
2018-08-17T12:54:10.312Z,4.27
2018-08-17T12:56:38.909Z,4.40
2018-08-17T12:59:07.499Z,4.10
2018-08-17T13:01:36.140Z,3.73
2018-08-17T13:04:04.715Z,4.00
2018-08-17T13:06:33.332Z,3.90
2018-08-17T13:09:02.044Z,3.73
2018-08-17T13:11:30.659Z,4.60
2018-08-17T13:14:03.405Z,5.00
2018-08-17T13:16:31.997Z,4.50
2018-08-17T13:19:00.571Z,4.03
2018-08-17T13:21:29.204Z,4.13
2018-08-17T13:23:57.773Z,4.10
2018-08-17T13:26:26.373Z,3.80
2018-08-17T13:28:55.076Z,4.90
2018-08-17T13:31:23.780Z,3.97
2018-08-17T13:33:52.386Z,4.10
2018-08-17T13:36:21.071Z,4.30
2018-08-17T13:38:49.678Z,4.30
2018-08-17T13:41:18.289Z,4.50
2018-08-17T13:43:47.187Z,4.27
2018-08-17T13:46:16.153Z,4.40
2018-08-17T13:48:45.108Z,3.77
2018-08-17T13:51:13.828Z,4.17
2018-08-17T13:53:42.402Z,4.47
2018-08-17T13:56:10.995Z,4.17
2018-08-17T13:58:39.916Z,4.17
2018-08-17T14:01:08.548Z,3.57
2018-08-17T14:03:37.136Z,4.00
2018-08-17T14:06:06.392Z,4.57
2018-08-17T14:08:34.956Z,4.00
2018-08-17T14:11:03.515Z,3.70
2018-08-17T14:13:32.145Z,4.40
2018-08-17T14:16:00.700Z,3.90
2018-08-17T14:18:29.283Z,4.10
2018-08-17T14:20:57.880Z,4.67
2018-08-17T14:23:26.439Z,4.50
2018-08-17T14:25:55.032Z,4.10
2018-08-17T14:28:23.707Z,4.43
2018-08-17T14:30:52.276Z,4.17
2018-08-17T14:33:20.821Z,4.23
2018-08-17T14:35:49.447Z,4.77
2018-08-17T14:38:28.920Z,4.90
2018-08-17T14:40:57.844Z,4.60
2018-08-17T14:43:27.004Z,4.20
2018-08-17T14:45:55.588Z,4.63
2018-08-17T14:48:24.615Z,5.17
2018-08-17T14:50:53.264Z,5.07
2018-08-17T14:53:21.863Z,4.87
2018-08-17T14:55:50.617Z,5.00
2018-08-17T14:58:19.179Z,4.60
2018-08-17T15:00:47.779Z,5.30
2018-08-17T15:03:16.512Z,4.53
2018-08-17T15:05:45.131Z,4.63
2018-08-17T15:08:13.780Z,4.60
2018-08-17T15:10:42.709Z,5.40
2018-08-17T15:13:11.358Z,4.77
2018-08-17T15:15:39.907Z,3.87
2018-08-17T15:18:08.536Z,4.47
2018-08-17T15:20:37.132Z,4.03
2018-08-17T15:23:05.818Z,5.70
2018-08-17T15:25:34.440Z,3.97
2018-08-17T15:28:03.024Z,3.80
2018-08-17T15:30:31.633Z,4.17
2018-08-17T15:33:00.251Z,4.23
2018-08-17T15:35:28.847Z,3.40
2018-08-17T15:37:57.452Z,3.63
2018-08-17T15:40:26.132Z,4.23
2018-08-17T15:43:03.722Z,4.97
2018-08-17T15:45:32.548Z,4.60
2018-08-17T15:48:01.116Z,4.03
2018-08-17T15:50:29.679Z,3.83
2018-08-17T15:52:58.496Z,4.23
2018-08-17T15:55:27.092Z,4.40
2018-08-17T15:57:55.693Z,3.90
2018-08-17T16:00:24.405Z,4.27
2018-08-17T16:02:52.996Z,4.13
2018-08-17T16:05:21.608Z,5.00
2018-08-17T16:07:50.340Z,4.93
2018-08-17T16:10:19.001Z,4.13
2018-08-17T16:12:47.571Z,4.70
2018-08-17T16:15:16.195Z,4.27
2018-08-17T16:17:44.763Z,5.13
2018-08-17T16:20:13.973Z,4.30
2018-08-17T16:22:43.443Z,4.47
2018-08-17T16:25:12.978Z,4.40
2018-08-17T16:27:42.538Z,4.57
2018-08-17T16:30:13.296Z,4.07
2018-08-17T16:32:41.954Z,4.27
2018-08-17T16:35:10.684Z,5.00
2018-08-17T16:37:44.081Z,4.27
2018-08-17T16:40:12.665Z,3.83
2018-08-17T16:42:41.248Z,4.30
2018-08-17T16:45:10.429Z,4.70
2018-08-17T16:47:39.020Z,4.37
2018-08-17T16:50:09.472Z,4.77
2018-08-17T16:52:38.194Z,5.30
2018-08-17T16:55:06.784Z,4.80
2018-08-17T16:57:35.589Z,4.63
2018-08-17T17:00:04.985Z,4.80
2018-08-17T17:02:33.544Z,4.50
2018-08-17T17:05:02.263Z,6.13
2018-08-17T17:07:32.005Z,5.50
2018-08-17T17:10:01.123Z,5.23
2018-08-17T17:12:29.771Z,4.50
2018-08-17T17:15:35.728Z,4.33
2018-08-17T17:18:08.328Z,4.60
2018-08-17T17:20:38.322Z,6.30
2018-08-17T17:23:09.339Z,7.20
2018-08-17T17:25:37.995Z,7.20
2018-08-17T17:28:07.327Z,9.00
2018-08-17T17:30:47.386Z,8.93
2018-08-17T17:33:16.002Z,8.90
2018-08-17T17:35:45.020Z,8.10
2018-08-17T17:38:13.887Z,8.70
2018-08-17T17:40:42.911Z,9.10
2018-08-17T17:43:11.601Z,8.20
2018-08-17T17:45:41.028Z,9.13
2018-08-17T17:48:10.195Z,8.87
2018-08-17T17:50:38.864Z,9.90
2018-08-17T17:53:07.691Z,9.40
2018-08-17T17:55:49.162Z,9.40
2018-08-17T17:58:18.159Z,9.80
2018-08-17T18:00:59.020Z,10.40
2018-08-17T18:03:29.924Z,11.97
2018-08-17T18:06:07.564Z,10.70
2018-08-17T18:08:36.355Z,10.40
2018-08-17T18:11:04.943Z,11.37
2018-08-17T18:13:33.509Z,10.93
2018-08-17T18:16:02.448Z,11.33
2018-08-17T18:18:31.204Z,11.13
2018-08-17T18:20:59.831Z,10.10
2018-08-17T18:23:28.583Z,11.47
2018-08-17T18:25:57.255Z,10.77
2018-08-17T18:28:25.824Z,10.27
2018-08-17T18:30:54.448Z,10.23
2018-08-17T18:33:23.059Z,9.63
2018-08-17T18:35:51.620Z,9.20
2018-08-17T18:38:20.315Z,8.23
2018-08-17T18:40:48.908Z,8.87
2018-08-17T18:43:17.471Z,8.57
2018-08-17T18:45:46.372Z,7.80
2018-08-17T18:48:14.932Z,7.50
2018-08-17T18:50:43.503Z,7.30
2018-08-17T18:53:12.208Z,7.03
2018-08-17T18:55:40.783Z,7.30
2018-08-17T18:58:09.340Z,7.43
2018-08-17T19:00:37.985Z,7.00
2018-08-17T19:03:06.633Z,7.10
2018-08-17T19:05:35.204Z,7.30
2018-08-17T19:08:03.808Z,7.33
2018-08-17T19:10:32.454Z,6.90
2018-08-17T19:13:00.943Z,6.23
2018-08-17T19:15:30.993Z,6.10
2018-08-17T19:17:59.614Z,6.20
2018-08-17T19:20:28.212Z,6.63
2018-08-17T19:22:56.843Z,5.87
2018-08-17T19:25:25.421Z,6.07
2018-08-17T19:27:53.983Z,6.23
2018-08-17T19:30:27.892Z,6.47
2018-08-17T19:32:57.604Z,6.80
2018-08-17T19:35:26.200Z,6.10
2018-08-17T19:37:54.859Z,6.50
2018-08-17T19:40:23.740Z,5.67
2018-08-17T19:42:52.382Z,6.30
2018-08-17T19:45:21.714Z,6.87
2018-08-17T19:47:50.716Z,6.60
2018-08-17T19:50:19.305Z,6.67
2018-08-17T19:52:48.041Z,7.50
2018-08-17T19:55:16.706Z,6.37
2018-08-17T19:57:45.317Z,6.53
2018-08-17T20:00:14.547Z,6.40
2018-08-17T20:02:43.196Z,6.77
2018-08-17T20:05:11.859Z,6.60
2018-08-17T20:07:40.594Z,6.90
2018-08-17T20:10:11.358Z,7.67
2018-08-17T20:12:40.119Z,7.00
2018-08-17T20:15:09.209Z,7.50
2018-08-17T20:17:38.428Z,7.03
2018-08-17T20:20:11.522Z,8.03
2018-08-17T20:22:40.076Z,7.30
2018-08-17T20:25:13.038Z,7.23
2018-08-17T20:27:41.708Z,8.30
2018-08-17T20:30:15.572Z,7.73
2018-08-17T20:32:44.576Z,7.60
2018-08-17T20:35:13.184Z,7.40
2018-08-17T20:37:46.009Z,8.10
2018-08-17T20:40:14.904Z,8.27
2018-08-17T20:42:43.475Z,7.20
2018-08-17T20:45:12.426Z,7.20
2018-08-17T20:47:42.022Z,7.30
2018-08-17T20:50:13.043Z,8.10
2018-08-17T20:53:01.503Z,8.43
2018-08-17T20:55:30.132Z,8.90
2018-08-17T20:57:59.467Z,8.13
2018-08-17T21:00:29.792Z,9.83
2018-08-17T21:02:58.344Z,9.83
2018-08-17T21:05:26.949Z,9.77
2018-08-17T21:07:55.551Z,9.10
2018-08-17T21:10:24.124Z,9.33
2018-08-17T21:12:52.692Z,9.73
2018-08-17T21:15:21.475Z,8.73
2018-08-17T21:17:50.115Z,9.73
2018-08-17T21:20:18.728Z,8.80
2018-08-17T21:22:47.352Z,9.63
2018-08-17T21:25:15.951Z,9.30
2018-08-17T21:27:44.549Z,10.03
2018-08-17T21:30:13.178Z,8.53
2018-08-17T21:32:41.787Z,9.50
2018-08-17T21:35:10.379Z,9.93
2018-08-17T21:37:39.131Z,10.73
2018-08-17T21:40:14.644Z,10.70
2018-08-17T21:42:43.360Z,10.40
2018-08-17T21:45:11.980Z,10.10
2018-08-17T21:47:40.567Z,10.23
2018-08-17T21:50:13.795Z,10.17
2018-08-17T21:52:43.687Z,10.70
2018-08-17T21:55:12.340Z,12.37
2018-08-17T21:57:41.052Z,10.73
2018-08-17T22:00:22.101Z,11.60
2018-08-17T22:02:50.912Z,11.53
2018-08-17T22:05:25.531Z,12.00
2018-08-17T22:07:54.124Z,10.53
2018-08-17T22:10:22.759Z,12.23
2018-08-17T22:12:51.379Z,11.30
2018-08-17T22:15:20.096Z,12.87
2018-08-17T22:17:48.712Z,12.37
2018-08-17T22:20:17.293Z,13.43
2018-08-17T22:22:45.915Z,12.10
2018-08-17T22:25:16.611Z,13.90
2018-08-17T22:27:45.287Z,14.33
2018-08-17T22:30:20.607Z,14.70
2018-08-17T22:32:49.299Z,12.53
2018-08-17T22:35:18.323Z,12.63
2018-08-17T22:37:46.909Z,13.13
2018-08-17T22:40:15.556Z,12.70
2018-08-17T22:42:46.820Z,13.50
2018-08-17T22:45:15.388Z,13.40
2018-08-17T22:47:44.001Z,13.37
2018-08-17T22:50:12.599Z,14.10
2018-08-17T22:52:41.215Z,13.50
2018-08-17T22:55:10.348Z,12.33
2018-08-17T22:57:38.980Z,14.57
2018-08-17T23:00:17.104Z,13.87
2018-08-17T23:02:46.775Z,13.40
2018-08-17T23:05:17.936Z,14.30
2018-08-17T23:07:46.555Z,12.83
2018-08-17T23:10:17.230Z,15.00
2018-08-17T23:12:47.156Z,14.03
2018-08-17T23:15:15.807Z,13.90
2018-08-17T23:17:47.185Z,13.50
2018-08-17T23:20:16.231Z,13.10
2018-08-17T23:22:51.740Z,13.60
2018-08-17T23:25:20.344Z,12.63
2018-08-17T23:27:49.589Z,13.60
2018-08-17T23:30:18.608Z,12.60
2018-08-17T23:32:47.783Z,13.17
2018-08-17T23:35:16.368Z,12.70
2018-08-17T23:37:45.289Z,13.20
2018-08-17T23:40:13.939Z,15.00
2018-08-17T23:42:42.586Z,15.77
2018-08-17T23:45:13.374Z,13.57
2018-08-17T23:47:41.988Z,14.90
2018-08-17T23:50:11.863Z,14.40
2018-08-17T23:52:40.570Z,15.60
2018-08-17T23:55:12.133Z,16.57
2018-08-17T23:57:40.760Z,16.67
